sensor_id;sensor_type;location;lat;lon;timestamp;temperature;humidity
11385;DHT22;5747;56.748;13.882;2024-03-08T00:01:03;-5.70;99.90
11385;DHT22;5747;56.748;13.882;2024-03-08T00:03:33;-5.50;99.90
11385;DHT22;5747;56.748;13.882;2024-03-08T00:06:02;-5.60;99.90
11385;DHT22;5747;56.748;13.882;2024-03-08T00:08:33;-5.80;99.90
11385;DHT22;5747;56.748;13.882;2024-03-08T00:11:02;-5.70;99.90
11385;DHT22;5747;56.748;13.882;2024-03-08T00:13:30;-5.80;99.90
11385;DHT22;5747;56.748;13.882;2024-03-08T00:15:59;-5.90;99.90
11385;DHT22;5747;56.748;13.882;2024-03-08T00:18:27;-6.00;99.90
11385;DHT22;5747;56.748;13.882;2024-03-08T00:20:56;-6.00;99.90
11385;DHT22;5747;56.748;13.882;2024-03-08T00:23:24;-6.10;99.90
11385;DHT22;5747;56.748;13.882;2024-03-08T00:25:54;-6.10;99.90
11385;DHT22;5747;56.748;13.882;2024-03-08T00:28:23;-6.10;99.90
11385;DHT22;5747;56.748;13.882;2024-03-08T00:30:52;-6.10;99.90
11385;DHT22;5747;56.748;13.882;2024-03-08T00:33:20;-5.90;99.90
11385;DHT22;5747;56.748;13.882;2024-03-08T00:35:48;-5.90;99.90
11385;DHT22;5747;56.748;13.882;2024-03-08T00:38:17;-5.90;99.90
11385;DHT22;5747;56.748;13.882;2024-03-08T00:40:46;-6.00;99.90
11385;DHT22;5747;56.748;13.882;2024-03-08T00:43:16;-5.90;99.90
11385;DHT22;5747;56.748;13.882;2024-03-08T00:45:44;-5.80;99.90
11385;DHT22;5747;56.748;13.882;2024-03-08T00:48:13;-6.00;99.90
11385;DHT22;5747;56.748;13.882;2024-03-08T00:50:41;-6.10;99.90
11385;DHT22;5747;56.748;13.882;2024-03-08T00:53:12;-6.20;99.90
11385;DHT22;5747;56.748;13.882;2024-03-08T00:55:40;-6.20;99.90
11385;DHT22;5747;56.748;13.882;2024-03-08T00:58:09;-6.30;99.90
11385;DHT22;5747;56.748;13.882;2024-03-08T01:00:39;-6.30;99.90
11385;DHT22;5747;56.748;13.882;2024-03-08T01:03:08;-6.40;99.90
11385;DHT22;5747;56.748;13.882;2024-03-08T01:05:38;-6.40;99.90
11385;DHT22;5747;56.748;13.882;2024-03-08T01:08:06;-6.40;99.90
11385;DHT22;5747;56.748;13.882;2024-03-08T01:10:35;-6.20;99.90
11385;DHT22;5747;56.748;13.882;2024-03-08T01:13:04;-6.10;99.90
11385;DHT22;5747;56.748;13.882;2024-03-08T01:15:33;-6.00;99.90
11385;DHT22;5747;56.748;13.882;2024-03-08T01:18:03;-5.90;99.90
11385;DHT22;5747;56.748;13.882;2024-03-08T01:20:32;-5.90;99.90
11385;DHT22;5747;56.748;13.882;2024-03-08T01:23:00;-5.90;99.90
11385;DHT22;5747;56.748;13.882;2024-03-08T01:25:29;-5.90;99.90
11385;DHT22;5747;56.748;13.882;2024-03-08T01:27:59;-6.00;99.90
11385;DHT22;5747;56.748;13.882;2024-03-08T01:30:27;-6.10;99.90
11385;DHT22;5747;56.748;13.882;2024-03-08T01:32:56;-6.20;99.90
11385;DHT22;5747;56.748;13.882;2024-03-08T01:35:26;-6.20;99.90
11385;DHT22;5747;56.748;13.882;2024-03-08T01:37:54;-6.20;99.90
11385;DHT22;5747;56.748;13.882;2024-03-08T01:40:23;-6.20;99.90
11385;DHT22;5747;56.748;13.882;2024-03-08T01:42:51;-6.40;99.90
11385;DHT22;5747;56.748;13.882;2024-03-08T01:45:20;-6.40;99.90
11385;DHT22;5747;56.748;13.882;2024-03-08T01:47:49;-6.50;99.90
11385;DHT22;5747;56.748;13.882;2024-03-08T01:50:18;-6.50;99.90
11385;DHT22;5747;56.748;13.882;2024-03-08T01:52:48;-6.50;99.90
11385;DHT22;5747;56.748;13.882;2024-03-08T01:55:16;-6.50;99.90
11385;DHT22;5747;56.748;13.882;2024-03-08T01:57:45;-6.50;99.90
11385;DHT22;5747;56.748;13.882;2024-03-08T02:00:14;-6.50;99.90
11385;DHT22;5747;56.748;13.882;2024-03-08T02:02:43;-6.50;99.90
11385;DHT22;5747;56.748;13.882;2024-03-08T02:05:14;-6.40;99.90
11385;DHT22;5747;56.748;13.882;2024-03-08T02:07:43;-6.40;99.90
11385;DHT22;5747;56.748;13.882;2024-03-08T02:10:13;-6.50;99.90
11385;DHT22;5747;56.748;13.882;2024-03-08T02:12:41;-6.60;99.90
11385;DHT22;5747;56.748;13.882;2024-03-08T02:15:10;-6.60;99.90
11385;DHT22;5747;56.748;13.882;2024-03-08T02:17:38;-6.70;99.90
11385;DHT22;5747;56.748;13.882;2024-03-08T02:20:07;-6.70;99.90
11385;DHT22;5747;56.748;13.882;2024-03-08T02:22:38;-6.70;99.90
11385;DHT22;5747;56.748;13.882;2024-03-08T02:25:08;-6.70;99.90
11385;DHT22;5747;56.748;13.882;2024-03-08T02:27:36;-6.80;99.90
11385;DHT22;5747;56.748;13.882;2024-03-08T02:30:05;-6.70;99.90
11385;DHT22;5747;56.748;13.882;2024-03-08T02:32:34;-6.60;99.90
11385;DHT22;5747;56.748;13.882;2024-03-08T02:35:02;-6.50;99.90
11385;DHT22;5747;56.748;13.882;2024-03-08T02:37:33;-6.40;99.90
11385;DHT22;5747;56.748;13.882;2024-03-08T02:40:03;-6.40;99.90
11385;DHT22;5747;56.748;13.882;2024-03-08T02:42:32;-6.40;99.90
11385;DHT22;5747;56.748;13.882;2024-03-08T02:45:00;-6.40;99.90
11385;DHT22;5747;56.748;13.882;2024-03-08T02:47:28;-6.50;99.90
11385;DHT22;5747;56.748;13.882;2024-03-08T02:49:58;-6.70;99.90
11385;DHT22;5747;56.748;13.882;2024-03-08T02:52:26;-6.80;99.90
11385;DHT22;5747;56.748;13.882;2024-03-08T02:54:54;-6.90;99.90
11385;DHT22;5747;56.748;13.882;2024-03-08T02:57:24;-6.90;99.90
11385;DHT22;5747;56.748;13.882;2024-03-08T02:59:53;-7.00;99.90
11385;DHT22;5747;56.748;13.882;2024-03-08T03:02:21;-7.00;99.90
11385;DHT22;5747;56.748;13.882;2024-03-08T03:04:50;-7.00;99.90
11385;DHT22;5747;56.748;13.882;2024-03-08T03:07:18;-6.90;99.90
11385;DHT22;5747;56.748;13.882;2024-03-08T03:09:47;-6.90;99.90
11385;DHT22;5747;56.748;13.882;2024-03-08T03:12:15;-6.80;99.90
11385;DHT22;5747;56.748;13.882;2024-03-08T03:14:44;-6.90;99.90
11385;DHT22;5747;56.748;13.882;2024-03-08T03:17:12;-6.90;99.90
11385;DHT22;5747;56.748;13.882;2024-03-08T03:19:41;-6.90;99.90
11385;DHT22;5747;56.748;13.882;2024-03-08T03:22:10;-6.70;99.90
11385;DHT22;5747;56.748;13.882;2024-03-08T03:24:38;-6.60;99.90
11385;DHT22;5747;56.748;13.882;2024-03-08T03:27:07;-6.60;99.90
11385;DHT22;5747;56.748;13.882;2024-03-08T03:29:38;-6.70;99.90
11385;DHT22;5747;56.748;13.882;2024-03-08T03:32:10;-6.80;99.90
11385;DHT22;5747;56.748;13.882;2024-03-08T03:34:39;-7.00;99.90
11385;DHT22;5747;56.748;13.882;2024-03-08T03:37:07;-7.10;99.90
11385;DHT22;5747;56.748;13.882;2024-03-08T03:39:35;-7.20;99.90
11385;DHT22;5747;56.748;13.882;2024-03-08T03:42:15;-7.30;99.90
11385;DHT22;5747;56.748;13.882;2024-03-08T03:44:44;-7.30;99.90
11385;DHT22;5747;56.748;13.882;2024-03-08T03:47:14;-7.40;99.90
11385;DHT22;5747;56.748;13.882;2024-03-08T03:49:42;-7.30;99.90
11385;DHT22;5747;56.748;13.882;2024-03-08T03:52:10;-7.30;99.90
11385;DHT22;5747;56.748;13.882;2024-03-08T03:54:39;-7.30;99.90
11385;DHT22;5747;56.748;13.882;2024-03-08T03:57:07;-7.20;99.90
11385;DHT22;5747;56.748;13.882;2024-03-08T04:00:00;-7.20;99.90
11385;DHT22;5747;56.748;13.882;2024-03-08T04:02:43;-7.10;99.90
11385;DHT22;5747;56.748;13.882;2024-03-08T04:05:11;-7.00;99.90
11385;DHT22;5747;56.748;13.882;2024-03-08T04:07:39;-6.90;99.90
11385;DHT22;5747;56.748;13.882;2024-03-08T04:10:10;-6.90;99.90
11385;DHT22;5747;56.748;13.882;2024-03-08T04:12:39;-7.00;99.90
11385;DHT22;5747;56.748;13.882;2024-03-08T04:15:08;-7.20;99.90
11385;DHT22;5747;56.748;13.882;2024-03-08T04:17:38;-7.20;99.90
11385;DHT22;5747;56.748;13.882;2024-03-08T04:20:25;-7.20;99.90
11385;DHT22;5747;56.748;13.882;2024-03-08T04:22:54;-7.00;99.90
11385;DHT22;5747;56.748;13.882;2024-03-08T04:25:23;-7.00;99.90
11385;DHT22;5747;56.748;13.882;2024-03-08T04:27:51;-7.00;99.90
11385;DHT22;5747;56.748;13.882;2024-03-08T04:30:19;-7.10;99.90
11385;DHT22;5747;56.748;13.882;2024-03-08T04:32:48;-7.20;99.90
11385;DHT22;5747;56.748;13.882;2024-03-08T04:35:16;-7.20;99.90
11385;DHT22;5747;56.748;13.882;2024-03-08T04:37:48;-7.30;99.90
11385;DHT22;5747;56.748;13.882;2024-03-08T04:40:16;-7.50;99.90
11385;DHT22;5747;56.748;13.882;2024-03-08T04:42:46;-7.40;99.90
11385;DHT22;5747;56.748;13.882;2024-03-08T04:45:18;-7.40;99.90
11385;DHT22;5747;56.748;13.882;2024-03-08T04:47:46;-7.20;99.90
11385;DHT22;5747;56.748;13.882;2024-03-08T04:50:14;-7.10;99.90
11385;DHT22;5747;56.748;13.882;2024-03-08T04:52:42;-7.10;99.90
11385;DHT22;5747;56.748;13.882;2024-03-08T04:55:12;-7.10;99.90
11385;DHT22;5747;56.748;13.882;2024-03-08T04:57:40;-7.20;99.90
11385;DHT22;5747;56.748;13.882;2024-03-08T05:00:10;-7.20;99.90
11385;DHT22;5747;56.748;13.882;2024-03-08T05:02:38;-7.20;99.90
11385;DHT22;5747;56.748;13.882;2024-03-08T05:05:08;-7.20;99.90
11385;DHT22;5747;56.748;13.882;2024-03-08T05:07:38;-7.20;99.90
11385;DHT22;5747;56.748;13.882;2024-03-08T05:10:07;-7.30;99.90
11385;DHT22;5747;56.748;13.882;2024-03-08T05:12:37;-7.40;99.90
11385;DHT22;5747;56.748;13.882;2024-03-08T05:15:07;-7.40;99.90
11385;DHT22;5747;56.748;13.882;2024-03-08T05:17:35;-7.40;99.90
11385;DHT22;5747;56.748;13.882;2024-03-08T05:20:04;-7.50;99.90
11385;DHT22;5747;56.748;13.882;2024-03-08T05:22:35;-7.50;99.90
11385;DHT22;5747;56.748;13.882;2024-03-08T05:25:03;-7.60;99.90
11385;DHT22;5747;56.748;13.882;2024-03-08T05:27:31;-7.50;99.90
11385;DHT22;5747;56.748;13.882;2024-03-08T05:30:01;-7.30;99.90
11385;DHT22;5747;56.748;13.882;2024-03-08T05:32:30;-7.30;99.90
11385;DHT22;5747;56.748;13.882;2024-03-08T05:34:59;-7.30;99.90
11385;DHT22;5747;56.748;13.882;2024-03-08T05:37:27;-7.30;99.90
11385;DHT22;5747;56.748;13.882;2024-03-08T05:39:55;-7.40;99.90
11385;DHT22;5747;56.748;13.882;2024-03-08T05:42:23;-7.50;99.90
11385;DHT22;5747;56.748;13.882;2024-03-08T05:44:51;-7.50;99.90
11385;DHT22;5747;56.748;13.882;2024-03-08T05:47:21;-7.50;99.90
11385;DHT22;5747;56.748;13.882;2024-03-08T05:49:49;-7.50;99.90
11385;DHT22;5747;56.748;13.882;2024-03-08T05:52:17;-7.50;99.90
11385;DHT22;5747;56.748;13.882;2024-03-08T05:54:45;-7.50;99.90
11385;DHT22;5747;56.748;13.882;2024-03-08T05:57:14;-7.50;99.90
11385;DHT22;5747;56.748;13.882;2024-03-08T05:59:42;-7.40;99.90
11385;DHT22;5747;56.748;13.882;2024-03-08T06:02:10;-7.40;99.90
11385;DHT22;5747;56.748;13.882;2024-03-08T06:04:40;-7.40;99.90
11385;DHT22;5747;56.748;13.882;2024-03-08T06:07:09;-7.40;99.90
11385;DHT22;5747;56.748;13.882;2024-03-08T06:09:39;-7.20;99.90
11385;DHT22;5747;56.748;13.882;2024-03-08T06:12:07;-7.00;99.90
11385;DHT22;5747;56.748;13.882;2024-03-08T06:14:38;-6.90;99.90
11385;DHT22;5747;56.748;13.882;2024-03-08T06:17:06;-6.80;99.90
11385;DHT22;5747;56.748;13.882;2024-03-08T06:19:34;-6.80;99.90
11385;DHT22;5747;56.748;13.882;2024-03-08T06:22:04;-6.80;99.90
11385;DHT22;5747;56.748;13.882;2024-03-08T06:24:33;-6.70;99.90
11385;DHT22;5747;56.748;13.882;2024-03-08T06:27:03;-6.70;99.90
11385;DHT22;5747;56.748;13.882;2024-03-08T06:29:32;-6.60;99.90
11385;DHT22;5747;56.748;13.882;2024-03-08T06:32:00;-6.60;99.90
11385;DHT22;5747;56.748;13.882;2024-03-08T06:34:29;-6.50;99.90
11385;DHT22;5747;56.748;13.882;2024-03-08T06:36:57;-6.40;99.90
11385;DHT22;5747;56.748;13.882;2024-03-08T06:39:29;-6.30;99.90
11385;DHT22;5747;56.748;13.882;2024-03-08T06:41:58;-6.30;99.90
11385;DHT22;5747;56.748;13.882;2024-03-08T06:44:26;-6.20;99.90
11385;DHT22;5747;56.748;13.882;2024-03-08T06:46:55;-6.10;99.90
11385;DHT22;5747;56.748;13.882;2024-03-08T06:49:26;-6.10;99.90
11385;DHT22;5747;56.748;13.882;2024-03-08T06:51:55;-6.10;99.90
11385;DHT22;5747;56.748;13.882;2024-03-08T06:54:24;-6.00;99.90
11385;DHT22;5747;56.748;13.882;2024-03-08T06:56:53;-5.90;99.90
11385;DHT22;5747;56.748;13.882;2024-03-08T06:59:21;-5.80;99.90
11385;DHT22;5747;56.748;13.882;2024-03-08T07:01:49;-5.80;99.90
11385;DHT22;5747;56.748;13.882;2024-03-08T07:04:18;-5.70;99.90
11385;DHT22;5747;56.748;13.882;2024-03-08T07:06:47;-5.60;99.90
11385;DHT22;5747;56.748;13.882;2024-03-08T07:09:16;-5.50;99.90
11385;DHT22;5747;56.748;13.882;2024-03-08T07:11:45;-5.30;99.90
11385;DHT22;5747;56.748;13.882;2024-03-08T07:14:15;-5.10;99.90
11385;DHT22;5747;56.748;13.882;2024-03-08T07:16:43;-4.90;99.90
11385;DHT22;5747;56.748;13.882;2024-03-08T07:19:11;-4.60;99.90
11385;DHT22;5747;56.748;13.882;2024-03-08T07:21:39;-4.40;99.90
11385;DHT22;5747;56.748;13.882;2024-03-08T07:24:08;-4.30;99.90
11385;DHT22;5747;56.748;13.882;2024-03-08T07:26:53;-4.20;99.90
11385;DHT22;5747;56.748;13.882;2024-03-08T07:29:23;-4.00;99.90
11385;DHT22;5747;56.748;13.882;2024-03-08T07:31:51;-3.90;99.90
11385;DHT22;5747;56.748;13.882;2024-03-08T07:34:29;-3.80;99.90
11385;DHT22;5747;56.748;13.882;2024-03-08T07:36:59;-3.70;99.90
11385;DHT22;5747;56.748;13.882;2024-03-08T07:39:27;-3.60;99.90
11385;DHT22;5747;56.748;13.882;2024-03-08T07:41:55;-3.40;99.90
11385;DHT22;5747;56.748;13.882;2024-03-08T07:44:24;-3.20;99.90
11385;DHT22;5747;56.748;13.882;2024-03-08T07:46:53;-3.10;99.90
11385;DHT22;5747;56.748;13.882;2024-03-08T07:49:24;-2.90;99.90
11385;DHT22;5747;56.748;13.882;2024-03-08T07:51:52;-2.70;99.90
11385;DHT22;5747;56.748;13.882;2024-03-08T07:54:20;-2.50;99.90
11385;DHT22;5747;56.748;13.882;2024-03-08T07:56:48;-2.40;99.90
11385;DHT22;5747;56.748;13.882;2024-03-08T07:59:18;-2.30;99.90
11385;DHT22;5747;56.748;13.882;2024-03-08T08:01:49;-2.10;99.90
11385;DHT22;5747;56.748;13.882;2024-03-08T08:04:17;-1.90;99.90
11385;DHT22;5747;56.748;13.882;2024-03-08T08:06:51;-1.70;99.90
11385;DHT22;5747;56.748;13.882;2024-03-08T08:09:21;-1.60;99.90
11385;DHT22;5747;56.748;13.882;2024-03-08T08:12:01;-1.30;99.90
11385;DHT22;5747;56.748;13.882;2024-03-08T08:14:30;-1.20;99.90
11385;DHT22;5747;56.748;13.882;2024-03-08T08:16:59;-1.00;99.90
11385;DHT22;5747;56.748;13.882;2024-03-08T08:19:31;-0.90;99.90
11385;DHT22;5747;56.748;13.882;2024-03-08T08:22:00;-0.70;99.90
11385;DHT22;5747;56.748;13.882;2024-03-08T08:24:28;-0.60;99.90
11385;DHT22;5747;56.748;13.882;2024-03-08T08:26:56;-0.50;99.90
11385;DHT22;5747;56.748;13.882;2024-03-08T08:29:24;-0.40;99.90
11385;DHT22;5747;56.748;13.882;2024-03-08T08:31:53;-0.30;99.90
11385;DHT22;5747;56.748;13.882;2024-03-08T08:34:22;-0.30;99.90
11385;DHT22;5747;56.748;13.882;2024-03-08T08:36:51;-0.20;99.90
11385;DHT22;5747;56.748;13.882;2024-03-08T08:39:19;-0.10;99.90
11385;DHT22;5747;56.748;13.882;2024-03-08T08:41:49;0.10;99.90
11385;DHT22;5747;56.748;13.882;2024-03-08T08:44:19;0.30;99.90
11385;DHT22;5747;56.748;13.882;2024-03-08T08:46:47;0.60;99.90
11385;DHT22;5747;56.748;13.882;2024-03-08T08:49:19;0.70;99.90
11385;DHT22;5747;56.748;13.882;2024-03-08T08:51:52;0.90;99.90
11385;DHT22;5747;56.748;13.882;2024-03-08T08:54:24;1.10;99.90
11385;DHT22;5747;56.748;13.882;2024-03-08T08:56:54;1.30;99.90
11385;DHT22;5747;56.748;13.882;2024-03-08T08:59:22;1.50;99.90
11385;DHT22;5747;56.748;13.882;2024-03-08T09:01:52;1.60;99.90
11385;DHT22;5747;56.748;13.882;2024-03-08T09:04:21;1.80;99.90
11385;DHT22;5747;56.748;13.882;2024-03-08T09:06:51;2.10;99.90
11385;DHT22;5747;56.748;13.882;2024-03-08T09:09:20;2.20;99.90
11385;DHT22;5747;56.748;13.882;2024-03-08T09:11:48;2.30;99.90
11385;DHT22;5747;56.748;13.882;2024-03-08T09:14:17;2.30;99.90
11385;DHT22;5747;56.748;13.882;2024-03-08T09:16:47;2.30;99.90
11385;DHT22;5747;56.748;13.882;2024-03-08T09:19:15;2.50;99.90
11385;DHT22;5747;56.748;13.882;2024-03-08T09:21:44;2.40;99.90
11385;DHT22;5747;56.748;13.882;2024-03-08T09:24:13;2.60;99.90
11385;DHT22;5747;56.748;13.882;2024-03-08T09:26:42;2.60;99.90
11385;DHT22;5747;56.748;13.882;2024-03-08T09:29:11;2.60;99.90
11385;DHT22;5747;56.748;13.882;2024-03-08T09:31:39;2.80;99.90
11385;DHT22;5747;56.748;13.882;2024-03-08T09:34:07;2.70;99.90
11385;DHT22;5747;56.748;13.882;2024-03-08T09:36:40;2.70;99.90
11385;DHT22;5747;56.748;13.882;2024-03-08T09:39:09;2.80;99.90
11385;DHT22;5747;56.748;13.882;2024-03-08T09:41:44;3.10;99.90
11385;DHT22;5747;56.748;13.882;2024-03-08T09:44:15;3.20;99.90
11385;DHT22;5747;56.748;13.882;2024-03-08T09:46:45;3.30;99.90
11385;DHT22;5747;56.748;13.882;2024-03-08T09:49:14;3.30;99.90
11385;DHT22;5747;56.748;13.882;2024-03-08T09:51:43;3.30;99.90
11385;DHT22;5747;56.748;13.882;2024-03-08T09:54:11;3.50;99.90
11385;DHT22;5747;56.748;13.882;2024-03-08T09:56:51;3.70;99.90
11385;DHT22;5747;56.748;13.882;2024-03-08T09:59:19;3.80;99.90
11385;DHT22;5747;56.748;13.882;2024-03-08T10:02:13;4.00;99.90
11385;DHT22;5747;56.748;13.882;2024-03-08T10:04:43;4.40;99.90
11385;DHT22;5747;56.748;13.882;2024-03-08T10:07:13;4.60;99.90
11385;DHT22;5747;56.748;13.882;2024-03-08T10:09:42;4.70;99.90
11385;DHT22;5747;56.748;13.882;2024-03-08T10:12:17;4.90;99.90
11385;DHT22;5747;56.748;13.882;2024-03-08T10:14:46;5.20;99.90
11385;DHT22;5747;56.748;13.882;2024-03-08T10:17:14;5.10;99.90
11385;DHT22;5747;56.748;13.882;2024-03-08T10:19:50;5.30;99.90
11385;DHT22;5747;56.748;13.882;2024-03-08T10:22:18;5.40;99.90
11385;DHT22;5747;56.748;13.882;2024-03-08T10:24:47;5.30;99.90
11385;DHT22;5747;56.748;13.882;2024-03-08T10:27:18;5.50;99.90
11385;DHT22;5747;56.748;13.882;2024-03-08T10:29:47;5.60;99.90
11385;DHT22;5747;56.748;13.882;2024-03-08T10:32:15;5.60;99.90
11385;DHT22;5747;56.748;13.882;2024-03-08T10:34:43;5.70;99.90
11385;DHT22;5747;56.748;13.882;2024-03-08T10:37:15;5.80;99.90
11385;DHT22;5747;56.748;13.882;2024-03-08T10:39:50;5.80;99.90
11385;DHT22;5747;56.748;13.882;2024-03-08T10:42:28;5.90;99.90
11385;DHT22;5747;56.748;13.882;2024-03-08T10:45:01;6.00;99.90
11385;DHT22;5747;56.748;13.882;2024-03-08T10:47:38;6.00;99.90
11385;DHT22;5747;56.748;13.882;2024-03-08T10:50:14;6.10;99.90
11385;DHT22;5747;56.748;13.882;2024-03-08T10:52:49;6.20;99.90
11385;DHT22;5747;56.748;13.882;2024-03-08T10:55:19;6.30;99.90
11385;DHT22;5747;56.748;13.882;2024-03-08T10:57:49;6.40;99.90
11385;DHT22;5747;56.748;13.882;2024-03-08T11:00:18;6.50;99.90
11385;DHT22;5747;56.748;13.882;2024-03-08T11:02:53;6.60;99.90
11385;DHT22;5747;56.748;13.882;2024-03-08T11:05:32;6.60;99.90
11385;DHT22;5747;56.748;13.882;2024-03-08T11:08:03;6.80;99.90
11385;DHT22;5747;56.748;13.882;2024-03-08T11:10:31;6.70;99.90
11385;DHT22;5747;56.748;13.882;2024-03-08T11:13:01;6.60;99.90
11385;DHT22;5747;56.748;13.882;2024-03-08T11:15:30;6.50;99.90
11385;DHT22;5747;56.748;13.882;2024-03-08T11:18:00;6.80;99.90
11385;DHT22;5747;56.748;13.882;2024-03-08T11:20:29;6.80;99.90
11385;DHT22;5747;56.748;13.882;2024-03-08T11:23:01;6.90;99.90
11385;DHT22;5747;56.748;13.882;2024-03-08T11:25:37;7.00;99.90
11385;DHT22;5747;56.748;13.882;2024-03-08T11:28:15;7.20;99.90
11385;DHT22;5747;56.748;13.882;2024-03-08T11:31:23;7.20;99.90
11385;DHT22;5747;56.748;13.882;2024-03-08T11:33:54;7.10;99.90
11385;DHT22;5747;56.748;13.882;2024-03-08T11:36:24;7.20;99.90
11385;DHT22;5747;56.748;13.882;2024-03-08T11:38:53;7.00;99.90
11385;DHT22;5747;56.748;13.882;2024-03-08T11:41:23;7.30;99.90
11385;DHT22;5747;56.748;13.882;2024-03-08T11:44:04;7.50;99.90
11385;DHT22;5747;56.748;13.882;2024-03-08T11:46:34;7.30;99.90
11385;DHT22;5747;56.748;13.882;2024-03-08T11:49:02;7.30;99.90
11385;DHT22;5747;56.748;13.882;2024-03-08T11:51:32;7.40;99.90
11385;DHT22;5747;56.748;13.882;2024-03-08T11:54:01;7.50;99.90
11385;DHT22;5747;56.748;13.882;2024-03-08T11:56:30;7.60;99.90
11385;DHT22;5747;56.748;13.882;2024-03-08T11:58:59;7.70;99.90
11385;DHT22;5747;56.748;13.882;2024-03-08T12:01:30;7.80;99.90
11385;DHT22;5747;56.748;13.882;2024-03-08T12:03:59;7.80;99.90
11385;DHT22;5747;56.748;13.882;2024-03-08T12:06:36;7.80;99.90
11385;DHT22;5747;56.748;13.882;2024-03-08T12:09:08;7.80;99.90
11385;DHT22;5747;56.748;13.882;2024-03-08T12:11:37;7.90;99.90
11385;DHT22;5747;56.748;13.882;2024-03-08T12:14:06;7.90;99.90
11385;DHT22;5747;56.748;13.882;2024-03-08T12:16:37;7.90;99.90
11385;DHT22;5747;56.748;13.882;2024-03-08T12:19:06;7.90;99.90
11385;DHT22;5747;56.748;13.882;2024-03-08T12:21:36;8.10;99.90
11385;DHT22;5747;56.748;13.882;2024-03-08T12:24:05;8.00;99.90
11385;DHT22;5747;56.748;13.882;2024-03-08T12:26:37;8.10;99.90
11385;DHT22;5747;56.748;13.882;2024-03-08T12:29:24;8.10;99.90
11385;DHT22;5747;56.748;13.882;2024-03-08T12:31:56;8.10;99.90
11385;DHT22;5747;56.748;13.882;2024-03-08T12:34:28;8.20;99.90
11385;DHT22;5747;56.748;13.882;2024-03-08T12:36:56;8.20;99.90
11385;DHT22;5747;56.748;13.882;2024-03-08T12:39:24;8.40;99.90
11385;DHT22;5747;56.748;13.882;2024-03-08T12:41:54;8.50;99.90
11385;DHT22;5747;56.748;13.882;2024-03-08T12:44:24;8.40;99.90
11385;DHT22;5747;56.748;13.882;2024-03-08T12:46:54;8.40;99.90
11385;DHT22;5747;56.748;13.882;2024-03-08T12:49:23;8.30;99.90
11385;DHT22;5747;56.748;13.882;2024-03-08T12:51:52;8.40;99.90
11385;DHT22;5747;56.748;13.882;2024-03-08T12:54:20;8.20;99.90
11385;DHT22;5747;56.748;13.882;2024-03-08T12:56:52;8.10;99.90
11385;DHT22;5747;56.748;13.882;2024-03-08T12:59:21;8.10;99.90
11385;DHT22;5747;56.748;13.882;2024-03-08T13:01:50;8.30;99.90
11385;DHT22;5747;56.748;13.882;2024-03-08T13:04:22;8.40;99.90
11385;DHT22;5747;56.748;13.882;2024-03-08T13:06:50;8.50;99.90
11385;DHT22;5747;56.748;13.882;2024-03-08T13:09:21;8.70;99.90
11385;DHT22;5747;56.748;13.882;2024-03-08T13:11:50;8.70;99.90
11385;DHT22;5747;56.748;13.882;2024-03-08T13:14:20;8.80;99.90
11385;DHT22;5747;56.748;13.882;2024-03-08T13:16:48;8.80;99.90
11385;DHT22;5747;56.748;13.882;2024-03-08T13:19:18;8.70;99.90
11385;DHT22;5747;56.748;13.882;2024-03-08T13:21:50;8.80;99.90
11385;DHT22;5747;56.748;13.882;2024-03-08T13:24:18;8.80;99.90
11385;DHT22;5747;56.748;13.882;2024-03-08T13:26:47;8.80;99.90
11385;DHT22;5747;56.748;13.882;2024-03-08T13:29:17;8.70;99.90
11385;DHT22;5747;56.748;13.882;2024-03-08T13:31:45;8.60;99.90
11385;DHT22;5747;56.748;13.882;2024-03-08T13:34:18;8.60;99.90
11385;DHT22;5747;56.748;13.882;2024-03-08T13:36:56;8.70;99.90
11385;DHT22;5747;56.748;13.882;2024-03-08T13:39:27;8.90;99.90
11385;DHT22;5747;56.748;13.882;2024-03-08T13:41:58;9.00;99.90
11385;DHT22;5747;56.748;13.882;2024-03-08T13:44:26;9.10;99.90
11385;DHT22;5747;56.748;13.882;2024-03-08T13:46:55;9.00;99.90
11385;DHT22;5747;56.748;13.882;2024-03-08T13:49:25;8.70;99.90
11385;DHT22;5747;56.748;13.882;2024-03-08T13:51:53;8.70;99.90
11385;DHT22;5747;56.748;13.882;2024-03-08T13:54:23;8.70;99.90
11385;DHT22;5747;56.748;13.882;2024-03-08T13:56:51;8.90;99.90
11385;DHT22;5747;56.748;13.882;2024-03-08T13:59:21;8.90;99.90
11385;DHT22;5747;56.748;13.882;2024-03-08T14:01:50;8.90;99.90
11385;DHT22;5747;56.748;13.882;2024-03-08T14:04:18;8.80;99.90
11385;DHT22;5747;56.748;13.882;2024-03-08T14:06:46;8.80;99.90
11385;DHT22;5747;56.748;13.882;2024-03-08T14:09:16;9.00;99.90
11385;DHT22;5747;56.748;13.882;2024-03-08T14:11:46;8.80;99.90
11385;DHT22;5747;56.748;13.882;2024-03-08T14:14:14;8.70;99.90
11385;DHT22;5747;56.748;13.882;2024-03-08T14:16:42;8.60;99.90
11385;DHT22;5747;56.748;13.882;2024-03-08T14:19:10;8.70;99.90
11385;DHT22;5747;56.748;13.882;2024-03-08T14:21:38;8.70;99.90
11385;DHT22;5747;56.748;13.882;2024-03-08T14:24:09;8.70;99.90
11385;DHT22;5747;56.748;13.882;2024-03-08T14:26:37;8.80;99.90
11385;DHT22;5747;56.748;13.882;2024-03-08T14:29:06;8.70;99.90
11385;DHT22;5747;56.748;13.882;2024-03-08T14:31:37;8.60;99.90
11385;DHT22;5747;56.748;13.882;2024-03-08T14:34:05;8.70;99.90
11385;DHT22;5747;56.748;13.882;2024-03-08T14:36:34;8.60;99.90
11385;DHT22;5747;56.748;13.882;2024-03-08T14:39:02;8.60;99.90
11385;DHT22;5747;56.748;13.882;2024-03-08T14:41:30;8.60;99.90
11385;DHT22;5747;56.748;13.882;2024-03-08T14:43:59;8.50;99.90
11385;DHT22;5747;56.748;13.882;2024-03-08T14:46:28;8.60;99.90
11385;DHT22;5747;56.748;13.882;2024-03-08T14:48:57;8.60;99.90
11385;DHT22;5747;56.748;13.882;2024-03-08T14:51:25;8.60;99.90
11385;DHT22;5747;56.748;13.882;2024-03-08T14:53:54;8.60;99.90
11385;DHT22;5747;56.748;13.882;2024-03-08T14:56:22;8.60;99.90
11385;DHT22;5747;56.748;13.882;2024-03-08T14:58:54;8.50;99.90
11385;DHT22;5747;56.748;13.882;2024-03-08T15:01:25;8.40;99.90
11385;DHT22;5747;56.748;13.882;2024-03-08T15:03:57;8.40;99.90
11385;DHT22;5747;56.748;13.882;2024-03-08T15:06:30;8.30;99.90
11385;DHT22;5747;56.748;13.882;2024-03-08T15:08:58;8.20;99.90
11385;DHT22;5747;56.748;13.882;2024-03-08T15:11:26;8.10;99.90
11385;DHT22;5747;56.748;13.882;2024-03-08T15:13:54;8.20;99.90
11385;DHT22;5747;56.748;13.882;2024-03-08T15:16:24;8.20;99.90
11385;DHT22;5747;56.748;13.882;2024-03-08T15:18:53;8.00;99.90
11385;DHT22;5747;56.748;13.882;2024-03-08T15:21:23;8.00;99.90
11385;DHT22;5747;56.748;13.882;2024-03-08T15:23:52;7.90;99.90
11385;DHT22;5747;56.748;13.882;2024-03-08T15:26:21;7.90;99.90
11385;DHT22;5747;56.748;13.882;2024-03-08T15:28:49;7.80;99.90
11385;DHT22;5747;56.748;13.882;2024-03-08T15:31:19;7.80;99.90
11385;DHT22;5747;56.748;13.882;2024-03-08T15:33:49;7.80;99.90
11385;DHT22;5747;56.748;13.882;2024-03-08T15:36:19;7.80;99.90
11385;DHT22;5747;56.748;13.882;2024-03-08T15:38:49;7.70;99.90
11385;DHT22;5747;56.748;13.882;2024-03-08T15:41:19;7.60;99.90
11385;DHT22;5747;56.748;13.882;2024-03-08T15:43:48;7.50;99.90
11385;DHT22;5747;56.748;13.882;2024-03-08T15:46:17;7.50;99.90
11385;DHT22;5747;56.748;13.882;2024-03-08T15:48:49;7.30;99.90
11385;DHT22;5747;56.748;13.882;2024-03-08T15:51:19;7.30;99.90
11385;DHT22;5747;56.748;13.882;2024-03-08T15:53:48;7.20;99.90